Latest Coastal Weather Observations for Cocos Island

IDW60701

Issued at 8:03 pm WST Tuesday 27 September 2016 (issued every 10 minutes, with the page automatically refreshed every 10 minutes)

About coastal observations | Map of coastal stations | Coastal observations for WA | Marine services | Other Formats
Station Details ID: 200284 Name: COCOS ISLAND AIRPORT Lat: -12.19 Lon: 96.83 Height: 3.0 m
Data from the previous 72 hours. | See also: Recent months at Cocos Island
Date/Time
WST
Temp
°C
Wind Pressure Rain since
9am
mm
Weather Cloud Vis
km
Sea
Height
m
Swell
Dir  Spd
kts
Gust
kts
hPa Trend Height
m
Period
s
Dir
27/08:00pm 25.2 SE 21 26 1012.9 - 0.0 - Partly cloudy - - - - -
27/07:30pm 25.5 SE 21 27 1012.4 - 0.0 - Partly cloudy 10 - - - -
27/07:28pm 25.3 SE 21 31 1012.4 - 0.0 - Partly cloudy 10 - - - -
27/07:00pm 25.6 SE 23 29 1011.9 - 0.0 - Partly cloudy 10 - - - -
27/06:30pm 25.8 SE 21 29 1011.7 - 0.0 - Partly cloudy 10 - - - -
27/06:00pm 26.3 SE 21 30 1011.5 - 0.0 - Partly cloudy 10 - - - -
27/05:30pm 26.4 SE 20 27 1011.5 - 0.0 - Partly cloudy 10 - - - -
27/05:00pm 27.0 SE 23 28 1011.1 - 0.0 - Partly cloudy 10 - - - -
27/04:30pm 26.9 SE 20 25 1011.1 - 0.0 - Mostly clear 10 - - - -
27/04:00pm 27.1 SE 22 29 1011.0 - 0.0 - Mostly clear 10 - - - -
27/03:30pm 26.8 SE 22 27 1011.2 - 0.0 - Mostly clear 10 - - - -
27/03:00pm 27.5 SE 22 28 1011.6 - 0.0 - Mostly clear 10 - - - -
27/02:30pm 26.5 SE 22 27 1012.0 - 0.0 - Partly cloudy 10 - - - -
27/02:00pm 26.5 SE 23 32 1012.4 - 0.0 - Cloudy 10 - - - -
27/01:30pm 26.5 SE 21 30 1012.8 - 0.0 - Mostly clear 10 - - - -
27/01:00pm 26.3 SE 24 30 1013.1 - 0.0 - Mostly clear 10 - - - -
27/12:30pm 27.1 SE 21 29 1013.6 - 0.0 - Mostly clear 10 - - - -
27/12:00pm 26.6 SE 23 30 1013.9 - 0.0 - Mostly clear 10 - - - -
27/11:30am 26.8 SE 22 28 1014.2 - 0.0 - Mostly clear 10 - - - -
27/11:00am 26.2 SE 24 32 1014.3 - 0.0 - Cloudy 10 - - - -
27/10:51am 25.8 SE 21 32 1014.5 - 0.0 - Mostly clear 10 - - - -
27/10:30am 26.2 SE 22 28 1014.4 - 0.0 - Mostly clear 10 - - - -
27/10:00am 25.6 SE 19 25 1014.2 - 0.0 - Mostly clear 10 - - - -
27/09:30am 24.3 SE 23 33 1014.0 - 0.0 Showers Mostly clear 10 - - - -
27/09:22am 25.1 SE 22 33 1013.9 - 0.0 - Mostly clear 10 - - - -
27/09:00am 25.5 SE 22 29 1013.6 - 0.0 - Mostly clear 10 - - - -
27/08:30am 25.4 SE 23 29 1013.3 - 0.0 - Mostly clear 10 - - - -
27/08:00am 24.9 SE 22 29 1012.9 - 0.0 - Mostly cloudy - - - - -
27/07:30am 25.1 SE 21 27 1012.5 - 0.0 - Partly cloudy - - - - -
27/07:00am 24.4 SE 22 28 1012.5 - 0.0 - Partly cloudy 10 - - - -
27/06:30am 24.9 SE 22 28 1012.3 - 0.0 - Partly cloudy 10 - - - -
27/06:08am 25.0 SE 20 30 1012.0 - 0.0 - Cloudy 10 - - - -
27/06:00am 25.0 SE 20 27 1012.0 - 0.0 - Cloudy 10 - - - -
27/05:30am 25.0 SE 20 26 1012.1 - 0.0 - Cloudy 10 - - - -
27/05:00am 24.9 SE 18 25 1012.0 - 0.0 - Cloudy 10 - - - -
27/04:30am 25.1 SE 19 26 1012.1 - 0.0 - Cloudy 10 - - - -
27/04:00am 25.1 SE 19 27 1012.3 - 0.0 - Partly cloudy 10 - - - -
27/03:30am 25.2 SE 17 22 1012.6 - 0.0 - Cloudy 10 - - - -
27/03:00am 25.3 SE 18 25 1012.8 - 0.0 - Cloudy 10 - - - -
27/02:30am 25.3 SE 19 24 1012.9 - 0.0 - Cloudy 10 - - - -
27/02:00am 25.3 SSE 17 23 1013.3 - 0.0 - Cloudy - - - - -
27/01:30am 25.1 SE 20 28 1013.8 - 0.0 - Partly cloudy - - - - -
27/01:00am 25.1 SE 20 27 1014.2 - 0.0 - Cloudy - - - - -
27/12:30am 25.3 SE 20 26 1014.6 - 0.0 - Cloudy - - - - -
27/12:16am 25.1 SSE 18 27 1014.6 - 0.0 - Partly cloudy - - - - -
27/12:15am 25.1 SSE 17 27 1014.6 - 0.0 - Partly cloudy - - - - -
27/12:03am 24.8 SE 19 26 1014.8 - 0.0 - Partly cloudy 0.5 - - - -
27/12:00am 24.9 SSE 19 26 1014.8 - 0.0 - Partly cloudy 10 - - - -
 
Date/Time
WST
Temp
°C
Wind Pressure Rain since
9am
mm
Weather Cloud Vis
km
Sea
Height
m
Swell
Dir  Spd
kts
Gust
kts
hPa Trend Height
m
Period
s
Dir
26/11:30pm 25.1 SE 20 27 1015.0 - 0.0 - Partly cloudy - - - - -
26/11:11pm 25.1 SE 19 29 1014.8 - 0.0 - Partly cloudy 10 - - - -
26/11:00pm 24.7 SE 19 26 1014.5 - 0.0 - Cloudy 10 - - - -
26/10:57pm 24.8 SE 19 26 1014.6 - 0.0 - Partly cloudy 10 - - - -
26/10:45pm 24.1 SE 20 30 1014.5 - 0.0 - Partly cloudy 5 - - - -
26/10:38pm 23.6 SE 23 30 1014.7 - 0.0 - Partly cloudy 6 - - - -
26/10:30pm 24.6 SE 20 27 1014.5 - 0.0 - Partly cloudy 10 - - - -
26/10:00pm 24.7 SE 20 27 1014.3 - 0.0 - Partly cloudy 10 - - - -
26/09:30pm 24.4 SE 21 31 1014.1 - 0.0 - Partly cloudy 10 - - - -
26/09:18pm 25.0 SE 19 29 1013.7 - 0.0 - Partly cloudy 10 - - - -
26/09:00pm 24.8 SE 19 28 1013.6 - 0.0 - Partly cloudy 10 - - - -
26/08:42pm 25.1 SE 19 29 1013.5 - 0.0 - Partly cloudy 10 - - - -
26/08:30pm 25.1 SE 19 25 1013.4 - 0.0 - Partly cloudy 10 - - - -
26/08:00pm 25.0 SE 22 30 1013.0 - 0.0 - Cloudy 10 - - - -
26/07:30pm 25.3 SE 24 29 1012.5 - 0.0 - Cloudy - - - - -
26/07:00pm 25.6 SE 23 34 1011.9 - 0.0 - Partly cloudy - - - - -
26/06:51pm 25.6 SE 23 34 1011.7 - 0.0 - Partly cloudy - - - - -
26/06:30pm 25.7 SE 21 27 1011.6 - 0.0 - Partly cloudy 10 - - - -
26/06:00pm 25.6 SE 21 29 1011.5 - 0.0 - Partly cloudy 10 - - - -
26/05:35pm 25.6 SE 22 32 1011.4 - 0.0 - Cloudy - - - - -
26/05:30pm 25.7 SE 22 31 1011.4 - 0.0 - Cloudy - - - - -
26/05:00pm 25.9 SE 22 29 1011.2 - 0.0 - Cloudy - - - - -
26/04:49pm 25.9 SE 21 31 1011.3 - 0.0 - Partly cloudy - - - - -
26/04:30pm 25.7 SE 22 30 1011.3 - 0.0 - Partly cloudy 10 - - - -
26/04:03pm 25.3 SE 22 33 1011.4 - 0.0 Showers Partly cloudy 10 - - - -
26/04:00pm 26.1 SE 21 29 1011.3 - 0.0 Showers Partly cloudy 10 - - - -
26/03:35pm 26.5 SE 21 31 1011.5 - 0.0 - Mostly clear 10 - - - -
26/03:30pm 26.5 SE 22 31 1011.5 - 0.0 - Mostly clear 10 - - - -
26/03:00pm 26.9 SE 23 31 1011.8 - 0.0 - Mostly clear 10 - - - -
26/02:30pm 27.1 SE 21 29 1012.0 - 0.0 - Mostly clear 10 - - - -
26/02:00pm 26.2 SE 22 33 1012.3 - 0.0 - Cloudy 10 - - - -
26/01:57pm 26.1 SE 23 33 1012.4 - 0.0 - Mostly clear 10 - - - -
26/01:30pm 26.0 SE 26 33 1012.7 - 0.0 - Mostly clear 10 - - - -
26/01:23pm 26.3 SE 23 33 1012.7 - 0.0 Showers Mostly clear 10 - - - -
26/01:00pm 26.2 SE 23 32 1013.1 - 0.0 - Mostly clear 10 - - - -
26/12:42pm 26.3 SE 21 31 1013.3 - 0.0 - Mostly clear 10 - - - -
26/12:30pm 25.7 SE 20 28 1013.4 - 0.0 - Mostly clear 10 - - - -
26/12:12pm 25.1 SE 22 32 1013.6 - 0.0 Showers Partly cloudy 10 - - - -
26/12:00pm 26.4 SE 21 28 1013.7 - 0.0 - Mostly clear 10 - - - -
26/11:30am 25.4 SE 25 32 1013.9 - 0.0 - Mostly clear 10 - - - -
26/11:16am 25.5 SE 22 33 1013.9 - 0.0 - Partly cloudy 10 - - - -
26/11:00am 25.5 SE 23 31 1013.8 - 0.0 - Cloudy 10 - - - -
26/10:30am 25.2 SE 25 32 1013.8 - 0.0 - Mostly clear 10 - - - -
26/10:02am 24.8 SE 22 32 1013.6 - 0.0 Showers Mostly clear 10 - - - -
26/10:00am 24.4 SE 23 32 1013.6 - 0.0 Showers Mostly clear 10 - - - -
26/09:47am 24.2 SE 23 33 1013.5 - 0.0 - Mostly clear 10 - - - -
26/09:38am 23.8 SE 25 33 1013.4 - 0.0 - Partly cloudy 6 - - - -
26/09:30am 24.9 SE 22 30 1013.1 - 0.0 Showers Partly cloudy 10 - - - -
26/09:00am 25.2 SE 22 32 1012.6 - 0.0 Showers Mostly clear 10 - - - -
26/08:30am 25.1 SE 22 30 1012.2 - 0.0 Showers Mostly clear 10 - - - -
26/08:00am 25.0 SE 21 31 1011.8 - 0.0 - Cloudy 10 - - - -
26/07:30am 24.9 SE 23 28 1011.4 - 0.0 - Partly cloudy 10 - - - -
26/07:00am 24.6 SE 23 34 1011.1 - 0.0 - Partly cloudy 10 - - - -
26/06:47am 24.9 SE 21 31 1010.9 - 0.0 - Partly cloudy 10 - - - -
26/06:30am 24.9 SE 19 26 1010.8 - 0.0 - Partly cloudy 10 - - - -
26/06:00am 24.5 SE 20 26 1010.7 - 0.0 - Partly cloudy 10 - - - -
26/05:44am 24.1 SE 23 33 1010.8 - 0.0 - Partly cloudy 10 - - - -
26/05:30am 24.1 SE 19 27 1010.7 - 0.0 - Partly cloudy 10 - - - -
26/05:06am 24.3 SE 20 30 1010.7 - 0.0 - Partly cloudy 10 - - - -
26/05:00am 24.5 SE 22 29 1010.7 - 0.0 - Cloudy 10 - - - -
26/04:30am 24.4 SE 23 29 1011.1 - 0.0 - Partly cloudy 10 - - - -
26/04:00am 24.6 SE 18 26 1011.3 - 0.0 - Partly cloudy 10 - - - -
26/03:58am 24.5 SE 19 29 1011.3 - 0.0 - Partly cloudy 10 - - - -
26/03:30am 25.1 SE 20 26 1011.6 - 0.0 - Partly cloudy 10 - - - -
26/03:00am 25.1 SE 22 29 1011.9 - 0.0 - Partly cloudy 10 - - - -
26/02:30am 25.5 SE 22 29 1012.1 - 0.0 - Partly cloudy 10 - - - -
26/02:00am 24.7 SE 22 29 1012.4 - 0.0 - Cloudy 10 - - - -
26/01:30am 25.3 SE 21 27 1012.9 - 0.0 - Partly cloudy 10 - - - -
26/01:00am 25.6 SE 22 29 1013.3 - 0.0 - Partly cloudy 10 - - - -
26/12:30am 25.6 SE 23 28 1013.4 - 0.0 - Partly cloudy 10 - - - -
26/12:00am 25.4 SE 22 28 1013.5 - 0.0 - Partly cloudy 10 - - - -
 
Date/Time
WST
Temp
°C
Wind Pressure Rain since
9am
mm
Weather Cloud Vis
km
Sea
Height
m
Swell
Dir  Spd
kts
Gust
kts
hPa Trend Height
m
Period
s
Dir
25/11:34pm 25.1 SE 24 31 1013.6 - 0.0 - Partly cloudy 10 - - - -
25/11:30pm 25.0 SE 23 31 1013.5 - 0.0 - Partly cloudy 10 - - - -
25/11:16pm 25.1 SE 25 30 1013.6 - 0.0 - Partly cloudy 6 - - - -
25/11:00pm 25.4 SE 24 30 1013.6 - 0.0 - Cloudy 10 - - - -
25/10:30pm 25.1 SE 22 29 1013.6 - 0.0 - Partly cloudy 10 - - - -
25/10:00pm 23.9 SE 25 30 1013.5 - 0.0 - Partly cloudy 10 - - - -
25/09:30pm 24.4 SE 21 27 1013.4 - 0.0 - Partly cloudy 10 - - - -
25/09:27pm 24.2 SE 22 32 1013.4 - 0.0 - Partly cloudy 10 - - - -
25/09:00pm 24.2 SE 24 33 1013.2 - 0.0 - Partly cloudy 10 - - - -
25/08:38pm 24.0 SE 25 35 1013.0 - 0.0 - Partly cloudy 10 - - - -
25/08:35pm 24.6 SE 23 33 1012.9 - 0.0 - Partly cloudy 10 - - - -
25/08:30pm 24.2 SE 21 27 1012.8 - 0.0 - Partly cloudy 10 - - - -
25/08:26pm 23.7 SE 24 34 1012.9 - 0.0 - Partly cloudy 6 - - - -
25/08:22pm 23.4 SE 25 34 1012.9 - 0.0 - Partly cloudy 6 - - - -
25/08:17pm 24.5 SE 24 34 1012.7 - 0.0 - Partly cloudy 10 - - - -
25/08:00pm 24.5 SE 24 31 1012.4 - 0.0 - Cloudy 8 - - - -
25/07:30pm 25.2 SE 21 28 1012.0 - 0.0 - Partly cloudy 10 - - - -
25/07:12pm 24.8 SE 25 37 1011.8 - 0.0 - Partly cloudy 10 - - - -
25/07:00pm 24.1 SE 25 34 1011.7 - 0.0 - Partly cloudy 10 - - - -
25/06:38pm 24.8 SE 23 33 1011.4 - 0.0 - Partly cloudy 10 - - - -
25/06:30pm 24.4 SE 22 31 1011.4 - 0.0 - Partly cloudy 10 - - - -
25/06:00pm 25.0 SE 23 34 1011.3 - 0.0 - Partly cloudy 10 - - - -
25/05:30pm 25.0 SE 23 33 1011.1 - 0.0 - Partly cloudy 10 - - - -
25/05:05pm 24.8 SE 21 32 1010.9 - 0.0 - Partly cloudy 10 - - - -
25/05:00pm 25.1 SE 22 29 1010.8 - 0.0 - Cloudy 10 - - - -
25/04:49pm 24.7 SE 24 34 1010.7 - 0.0 - Partly cloudy 10 - - - -
25/04:30pm 25.7 SE 21 28 1010.7 - 0.0 - Cloudy 10 - - - -
25/04:00pm 25.8 SE 23 30 1010.7 - 0.0 - Partly cloudy 10 - - - -
25/03:30pm 25.7 SE 23 30 1010.8 - 0.0 - Partly cloudy 10 - - - -
25/03:00pm 25.5 SSE 22 30 1010.8 - 0.0 - Partly cloudy 8 - - - -
25/02:30pm 25.8 SE 24 31 1010.9 - 0.0 - Partly cloudy 10 - - - -
25/02:18pm 26.0 SSE 22 33 1010.9 - 0.0 - Partly cloudy 10 - - - -
25/02:00pm 25.9 SSE 22 31 1011.0 - 0.0 - Cloudy 10 - - - -
25/01:30pm 26.2 SE 25 32 1011.2 - 0.0 - Partly cloudy 10 - - - -
25/01:00pm 26.5 SSE 23 33 1011.4 - 0.0 - Partly cloudy 10 - - - -
25/12:43pm 26.5 SE 24 34 1011.7 - 0.0 - Partly cloudy 10 - - - -
25/12:30pm 26.3 SE 25 33 1011.9 - 0.0 - Partly cloudy 10 - - - -
25/12:09pm 26.8 SE 25 35 1011.9 - 0.0 - Partly cloudy - - - - -
25/12:00pm 27.2 SE 25 33 1012.0 - 0.0 - Partly cloudy - - - - -
25/11:40am 27.2 SE 24 34 1012.3 - 0.0 - Partly cloudy - - - - -
25/11:30am 26.3 SE 25 33 1012.5 - 0.0 - Partly cloudy - - - - -
25/11:00am 26.1 SE 26 34 1012.5 - 0.0 - Cloudy 10 - - - -
25/10:30am 25.7 SE 23 30 1012.7 - 0.0 - Partly cloudy 10 - - - -
25/10:00am 24.4 SE 22 30 1012.9 - 0.0 - Partly cloudy 9 - - - -
25/09:30am 24.7 SE 21 33 1012.9 - 0.0 - Partly cloudy 10 - - - -
25/09:07am 24.5 SSE 23 33 1012.7 - 0.0 - Partly cloudy 10 - - - -
25/09:01am 24.5 SE 22 33 1012.6 - 0.0 - Partly cloudy 10 - - - -
25/09:00am 24.7 SE 21 30 1012.6 - 0.0 - Partly cloudy 10 - - - -
25/08:51am 23.9 SE 22 30 1012.5 - 0.0 - Partly cloudy 6 - - - -
25/08:33am 23.8 SE 23 33 1012.3 - 0.0 - Partly cloudy 6 - - - -
25/08:31am 24.3 SSE 22 33 1012.2 - 0.0 - Partly cloudy 10 - - - -
25/08:30am 24.8 SSE 21 29 1012.2 - 0.0 - Partly cloudy 10 - - - -
25/08:01am 25.3 SSE 20 30 1011.6 - 0.0 - Partly cloudy 10 - - - -
25/08:00am 25.2 SSE 20 29 1011.6 - 0.0 - Cloudy 10 - - - -
25/07:30am 24.9 SE 23 29 1011.3 - 0.0 - Partly cloudy 10 - - - -
25/07:00am 25.0 SSE 22 29 1010.8 - 0.0 - Partly cloudy 10 - - - -
25/06:41am 24.8 SE 21 30 1010.7 - 0.0 - Partly cloudy 0.6 - - - -
25/06:30am 24.7 SE 23 31 1010.6 - 0.0 - Partly cloudy 10 - - - -
25/06:20am 24.8 SSE 20 31 1010.5 - 0.0 - Partly cloudy 10 - - - -
25/06:00am 25.1 SSE 21 29 1010.3 - 0.0 - Partly cloudy 10 - - - -
25/05:30am 24.7 SSE 21 30 1010.1 - 0.0 - Partly cloudy 10 - - - -
25/05:11am 25.1 SSE 20 31 1010.1 - 0.0 - Partly cloudy 10 - - - -
25/05:00am 25.1 SSE 20 26 1010.2 - 0.0 - Cloudy 10 - - - -
25/04:30am 25.1 SSE 19 28 1010.4 - 0.0 - Partly cloudy 10 - - - -
25/04:11am 25.1 SSE 20 31 1010.4 - 0.0 - Partly cloudy 10 - - - -
25/04:00am 25.2 SSE 21 28 1010.4 - 0.0 - Partly cloudy 10 - - - -
25/03:30am 25.2 SSE 19 24 1010.6 - 0.0 - Partly cloudy 10 - - - -
25/03:00am 25.1 SSE 18 25 1010.9 - 0.0 - Partly cloudy 10 - - - -
25/02:35am 25.2 SSE 19 29 1011.1 - 0.0 - Partly cloudy 10 - - - -
25/02:30am 25.2 SSE 20 29 1011.2 - 0.0 - Partly cloudy 10 - - - -
25/02:00am 25.3 SSE 19 25 1011.3 - 0.0 - Cloudy 10 - - - -
25/01:30am 25.4 SSE 20 28 1011.5 - 0.0 - Partly cloudy 10 - - - -
25/01:00am 25.4 SSE 20 28 1011.4 - 0.0 - Partly cloudy 10 - - - -
25/12:30am 25.5 SSE 21 30 1011.6 - 0.0 - Partly cloudy 10 - - - -
25/12:00am 25.4 SE 22 30 1011.7 - 0.0 - Partly cloudy 10 - - - -
 
Date/Time
WST
Temp
°C
Wind Pressure Rain since
9am
mm
Weather Cloud Vis
km
Sea
Height
m
Swell
Dir  Spd
kts
Gust
kts
hPa Trend Height
m
Period
s
Dir
24/11:48pm 25.3 SE 21 31 1011.7 - 0.0 - Partly cloudy 10 - - - -
24/11:30pm 25.2 SE 23 30 1011.7 - 0.0 - Partly cloudy 10 - - - -
24/11:00pm 25.4 SE 23 29 1011.8 - 0.0 - Cloudy 10 - - - -
24/10:40pm 25.5 SE 24 32 1011.7 - 0.0 - Partly cloudy 10 - - - -
24/10:30pm 25.5 SE 22 29 1011.7 - 0.0 - Partly cloudy 4 - - - -
24/10:13pm 25.5 SE 23 29 1011.6 - 0.0 - Partly cloudy 3 - - - -
24/10:00pm 25.6 SE 24 32 1011.5 - 0.0 - Partly cloudy 10 - - - -

Other Formats:

Comma delimited format used in spreadsheet applications
http://www.bom.gov.au/fwo/IDW60701/IDW60701.96996.axf

JavaScript Object Notation format (JSON) in row-major order
http://www.bom.gov.au/fwo/IDW60701/IDW60701.96996.json